Time;durP1;ratioP1;P1;durP2;ratioP2;P2;SDS_P1;SDS_P2;PMS_P1;PMS_P2;Temp;Humidity;BMP_temperature;BMP_pressure;BME280_temperature;BME280_humidity;BME280_pressure;Samples;Min_cycle;Max_cycle;Signal;HPM_P1;HPM_P2
2024/01/22 00:00:30;;;;;;;24.53;9.87;;;;;;;3.67;100.00;102226.16;31452547;28;20047;-74
2024/01/22 00:15:32;;;;;;;34.10;14.00;;;;;;;3.65;100.00;102212.25;31460000;28;20048;-74
2024/01/22 00:30:35;;;;;;;26.10;12.90;;;;;;;3.57;100.00;102231.06;31491108;28;20177;-74
2024/01/22 00:45:40;;;;;;;32.90;14.43;;;;;;;3.44;100.00;102232.81;31479032;28;20053;-75
2024/01/22 01:00:42;;;;;;;29.70;13.67;;;;;;;2.98;100.00;102236.94;31466872;28;20033;-76
2024/01/22 01:15:44;;;;;;;20.13;11.67;;;;;;;2.54;100.00;102237.19;31494383;28;20060;-75
2024/01/22 01:30:46;;;;;;;28.83;12.13;;;;;;;2.35;100.00;102224.84;31486749;28;20080;-74
2024/01/22 01:45:48;;;;;;;22.00;10.67;;;;;;;2.11;100.00;102232.47;31468957;28;20107;-74
2024/01/22 02:00:54;;;;;;;24.20;11.43;;;;;;;2.28;100.00;102243.25;31471901;28;20083;-74
2024/01/22 02:15:56;;;;;;;24.23;13.05;;;;;;;1.76;100.00;102273.56;31505534;28;20044;-73
2024/01/22 02:30:59;;;;;;;21.17;10.27;;;;;;;1.82;100.00;102291.09;31492756;28;20127;-74
2024/01/22 02:46:01;;;;;;;23.03;13.07;;;;;;;1.79;100.00;102299.72;31471140;28;20052;-75
2024/01/22 03:01:03;;;;;;;23.63;12.17;;;;;;;1.91;100.00;102316.03;31462436;28;20047;-74
2024/01/22 03:16:06;;;;;;;32.67;12.83;;;;;;;2.23;100.00;102339.06;31499057;28;20048;-74
2024/01/22 03:31:08;;;;;;;25.67;12.13;;;;;;;1.24;100.00;102342.75;31496719;28;20052;-75
2024/01/22 03:46:14;;;;;;;23.13;11.63;;;;;;;1.30;100.00;102365.63;31469012;28;20048;-74
2024/01/22 04:01:23;;;;;;;20.10;11.03;;;;;;;1.29;100.00;102370.19;31471829;28;20052;-73
2024/01/22 04:16:25;;;;;;;19.13;10.37;;;;;;;0.92;100.00;102392.63;31474419;28;20086;-75
2024/01/22 04:31:27;;;;;;;19.80;9.27;;;;;;;0.62;100.00;102404.66;31477184;28;20045;-74
2024/01/22 04:46:29;;;;;;;17.90;8.67;;;;;;;0.47;100.00;102422.88;31486128;28;20048;-74
2024/01/22 05:01:31;;;;;;;17.33;9.97;;;;;;;0.32;100.00;102451.41;31473956;28;20354;-76
2024/01/22 05:16:33;;;;;;;19.70;9.13;;;;;;;0.29;100.00;102449.31;31467443;28;20424;-77
2024/01/22 05:31:35;;;;;;;27.90;9.77;;;;;;;0.26;100.00;102455.22;31479740;28;20114;-74
2024/01/22 05:46:37;;;;;;;20.70;10.73;;;;;;;0.17;100.00;102467.69;31498408;28;20453;-74
2024/01/22 06:01:39;;;;;;;39.00;14.00;;;;;;;0.21;100.00;102471.38;31502402;28;20128;-74
2024/01/22 06:16:41;;;;;;;26.00;12.53;;;;;;;2.39;100.00;102485.81;31465294;28;20063;-75
2024/01/22 06:31:43;;;;;;;22.93;11.00;;;;;;;3.47;100.00;102489.97;31507046;28;20055;-76
2024/01/22 06:46:45;;;;;;;12.53;7.13;;;;;;;3.90;98.44;102491.94;31499119;28;20053;-75
2024/01/22 07:01:47;;;;;;;23.30;10.43;;;;;;;1.42;100.00;102518.44;31505875;28;20071;-76
2024/01/22 07:16:49;;;;;;;20.97;9.17;;;;;;;0.16;100.00;102548.09;31456888;28;20123;-74
2024/01/22 07:31:51;;;;;;;29.77;11.07;;;;;;;-0.82;100.00;102536.19;31488703;28;22185;-77
2024/01/22 07:46:53;;;;;;;15.77;7.80;;;;;;;-0.77;100.00;102541.47;31474214;28;20048;-75
2024/01/22 08:01:55;;;;;;;16.73;10.50;;;;;;;0.73;100.00;102541.63;31482805;28;20128;-76
2024/01/22 08:16:57;;;;;;;18.07;10.57;;;;;;;1.28;100.00;102537.19;31460452;28;20067;-76
2024/01/22 08:32:00;;;;;;;29.83;13.30;;;;;;;1.16;100.00;102541.44;31489544;28;20131;-76
2024/01/22 08:47:02;;;;;;;18.00;10.43;;;;;;;1.09;100.00;102535.69;31488794;28;20056;-76
2024/01/22 09:02:05;;;;;;;22.73;9.90;;;;;;;0.85;100.00;102528.59;31479662;28;20136;-76
2024/01/22 09:17:07;;;;;;;27.83;12.57;;;;;;;1.51;100.00;102527.38;31473667;28;20064;-78
2024/01/22 09:32:11;;;;;;;31.10;14.83;;;;;;;1.64;100.00;102515.09;31476771;28;20053;-77
2024/01/22 09:47:15;;;;;;;25.70;9.93;;;;;;;2.16;100.00;102494.94;31475533;28;20395;-84
2024/01/22 10:02:18;;;;;;;21.67;10.00;;;;;;;2.09;100.00;102502.63;31488227;28;20048;-90
2024/01/22 10:17:26;;;;;;;23.60;9.73;;;;;;;1.86;100.00;102506.34;31465920;28;20458;-82
2024/01/22 10:32:28;;;;;;;17.50;7.80;;;;;;;1.27;100.00;102492.00;31443965;28;20488;-85
2024/01/22 10:47:31;;;;;;;26.03;10.67;;;;;;;1.93;100.00;102479.91;31526308;28;20040;-84
2024/01/22 11:02:35;;;;;;;19.00;11.57;;;;;;;1.95;100.00;102461.66;31551253;28;20127;-78
2024/01/22 11:17:38;;;;;;;19.40;8.97;;;;;;;1.54;100.00;102462.53;31479353;28;20049;-78
2024/01/22 11:32:44;;;;;;;26.93;11.43;;;;;;;1.32;100.00;102463.25;31515374;28;20083;-79
2024/01/22 11:47:47;;;;;;;23.90;10.13;;;;;;;1.59;100.00;102454.41;31486772;28;20053;-78
2024/01/22 12:02:50;;;;;;;22.43;10.87;;;;;;;0.53;100.00;102475.13;31507405;28;20056;-80
2024/01/22 12:17:53;;;;;;;21.27;10.60;;;;;;;0.71;100.00;102482.28;31491652;28;20053;-79
2024/01/22 12:32:55;;;;;;;22.90;9.77;;;;;;;0.74;100.00;102496.97;31500905;28;20060;-81
2024/01/22 12:47:58;;;;;;;23.07;9.07;;;;;;;1.18;100.00;102485.75;31577725;28;20052;-85
2024/01/22 13:03:02;;;;;;;14.40;6.47;;;;;;;0.96;100.00;102473.81;31509639;28;20072;-78
2024/01/22 13:18:05;;;;;;;15.70;7.97;;;;;;;-0.25;100.00;102494.47;31497547;28;20128;-83
2024/01/22 13:33:10;;;;;;;15.33;7.73;;;;;;;-0.64;100.00;102500.78;31482958;28;20110;-76
2024/01/22 13:48:15;;;;;;;23.67;8.93;;;;;;;-0.75;100.00;102501.97;31470507;28;20053;-84
2024/01/22 14:03:57;;;;;;;16.53;10.47;;;;;;;-0.70;100.00;102476.03;31333176;28;20059;-78
2024/01/22 14:19:06;;;;;;;16.80;7.90;;;;;;;-1.19;100.00;102494.94;31515892;28;20056;-77
2024/01/22 14:34:16;;;;;;;18.80;9.00;;;;;;;-1.15;100.00;102474.63;31460969;28;20074;-82
2024/01/22 14:49:39;;;;;;;;;;;;;;;;;;;;;
2024/01/22 15:05:25;;;;;;;;;;;;;;;;;;;;;
2024/01/22 15:20:32;;;;;;;19.67;9.93;;;;;;;-1.17;100.00;102486.66;31463948;28;20056;-80
2024/01/22 15:35:54;;;;;;;17.00;10.20;;;;;;;-1.18;100.00;102491.19;31482158;28;20048;-85
2024/01/22 15:51:50;;;;;;;;;;;;;;;;;;;;;
2024/01/22 16:07:03;;;;;;;11.43;7.73;;;;;;;-1.39;100.00;102481.78;31472503;28;20056;-82
2024/01/22 16:22:14;;;;;;;13.57;7.23;;;;;;;-1.43;100.00;102440.81;31470511;28;20135;-83
2024/01/22 16:37:34;;;;;;;11.03;5.77;;;;;;;-1.20;100.00;102466.72;31580822;22;20040;-88
2024/01/22 16:53:00;;;;;;;10.47;6.80;;;;;;;-1.39;100.00;102447.94;31469052;28;20048;-84
2024/01/22 17:08:02;;;;;;;11.37;6.57;;;;;;;-1.07;100.00;102471.38;31476062;28;20060;-80
2024/01/22 17:23:05;;;;;;;11.20;5.83;;;;;;;-1.33;100.00;102478.00;31479971;28;20045;-79
2024/01/22 17:38:10;;;;;;;22.83;10.70;;;;;;;-1.33;100.00;102472.69;31470279;28;20520;-83
2024/01/22 17:53:15;;;;;;;6.17;5.33;;;;;;;-0.97;100.00;102475.00;31500774;28;20052;-84
2024/01/22 18:08:17;;;;;;;12.33;6.57;;;;;;;-0.82;100.00;102464.19;31537825;28;20504;-79
2024/01/22 18:23:19;;;;;;;10.63;6.23;;;;;;;-0.68;100.00;102447.19;31504232;28;20049;-87
2024/01/22 18:38:21;;;;;;;9.77;6.23;;;;;;;-0.59;100.00;102457.25;31591135;28;20432;-84
2024/01/22 18:53:23;;;;;;;10.90;5.67;;;;;;;-0.47;100.00;102445.06;31519146;28;20480;-83
2024/01/22 19:08:26;;;;;;;11.20;6.03;;;;;;;-0.96;100.00;102449.94;31516162;28;20428;-83
2024/01/22 19:23:28;;;;;;;8.33;5.50;;;;;;;-0.60;100.00;102432.44;31489444;28;20048;-81
2024/01/22 19:38:31;;;;;;;7.13;4.90;;;;;;;-1.08;100.00;102421.78;31528449;28;20095;-83
2024/01/22 19:53:33;;;;;;;6.33;4.87;;;;;;;-1.13;100.00;102408.50;31504710;28;20055;-82
2024/01/22 20:08:35;;;;;;;8.40;5.17;;;;;;;-1.32;100.00;102420.97;31499584;28;20135;-83
2024/01/22 20:23:37;;;;;;;6.93;4.73;;;;;;;-1.22;100.00;102410.22;31515006;28;20075;-82
2024/01/22 20:38:49;;;;;;;6.87;4.93;;;;;;;-1.26;100.00;102395.88;31571916;28;20114;-81
2024/01/22 20:53:51;;;;;;;8.07;5.17;;;;;;;-1.30;100.00;102394.84;31518630;28;20549;-83
2024/01/22 21:08:54;;;;;;;10.40;6.93;;;;;;;-1.52;100.00;102383.88;31473947;28;20095;-83
2024/01/22 21:23:56;;;;;;;10.30;6.47;;;;;;;-1.70;100.00;102387.25;31466894;28;20136;-81
2024/01/22 21:38:59;;;;;;;8.93;6.27;;;;;;;-1.57;100.00;102375.91;31476603;28;20148;-83
2024/01/22 21:54:02;;;;;;;4.17;3.77;;;;;;;-1.77;100.00;102372.38;31501372;28;20044;-82
2024/01/22 22:09:05;;;;;;;7.63;3.73;;;;;;;-1.75;100.00;102374.75;31465648;28;20060;-83
2024/01/22 22:24:07;;;;;;;5.93;4.60;;;;;;;-2.16;100.00;102358.31;31499615;28;20040;-77
2024/01/22 22:39:09;;;;;;;4.17;2.83;;;;;;;-2.04;100.00;102361.41;31507455;28;20056;-78
2024/01/22 22:54:12;;;;;;;8.00;4.90;;;;;;;-2.28;100.00;102334.72;31474314;28;20060;-76
2024/01/22 23:09:14;;;;;;;6.30;4.83;;;;;;;-1.69;100.00;102320.38;31509505;28;20135;-76
2024/01/22 23:24:16;;;;;;;6.63;4.87;;;;;;;-1.34;100.00;102313.88;31481176;28;20152;-76
2024/01/22 23:39:18;;;;;;;8.87;5.57;;;;;;;-1.26;100.00;102301.78;31505762;28;20067;-76
2024/01/22 23:54:20;;;;;;;9.20;5.63;;;;;;;-1.04;100.00;102281.53;31458288;28;20495;-76
